Time;durP1;ratioP1;P1;durP2;ratioP2;P2;SDS_P1;SDS_P2;PMS_P1;PMS_P2;Temp;Humidity;BMP_temperature;BMP_pressure;BME280_temperature;BME280_humidity;BME280_pressure;Samples;Min_cycle;Max_cycle;Signal;HPM_P1;HPM_P2
2022/05/09 06:24:12;;;;;;;14.18;5.25;;;8.00;99.90;;;;;;6302662;22;1253904;-73
2022/05/09 06:26:38;;;;;;;15.23;5.25;;;8.10;99.90;;;;;;6359847;22;20029;-74
2022/05/09 06:29:06;;;;;;;12.75;4.43;;;8.20;99.90;;;;;;6361346;22;20018;-73
2022/05/09 06:31:33;;;;;;;17.17;4.97;;;8.60;99.90;;;;;;6360192;22;20453;-71
2022/05/09 06:33:59;;;;;;;14.00;4.82;;;8.40;99.90;;;;;;6359731;22;20018;-71
2022/05/09 06:36:25;;;;;;;20.23;5.25;;;8.60;99.90;;;;;;6359281;22;20025;-77
2022/05/09 06:38:50;;;;;;;13.35;4.95;;;8.80;99.90;;;;;;6358132;22;20014;-72
2022/05/09 06:41:16;;;;;;;11.40;5.03;;;8.90;99.90;;;;;;6362038;22;20029;-73
2022/05/09 06:43:43;;;;;;;17.77;5.63;;;8.80;99.90;;;;;;6361087;22;20019;-73
2022/05/09 06:46:09;;;;;;;11.95;4.15;;;8.90;99.90;;;;;;6358709;22;20065;-74
2022/05/09 06:48:35;;;;;;;17.73;4.97;;;9.10;99.90;;;;;;6361319;22;20054;-72
2022/05/09 06:51:00;;;;;;;17.67;5.05;;;9.20;99.90;;;;;;6360186;22;20011;-72
2022/05/09 06:53:26;;;;;;;11.55;5.18;;;9.40;99.90;;;;;;6359763;22;20498;-73
2022/05/09 06:55:52;;;;;;;15.65;4.90;;;9.50;99.90;;;;;;6361338;22;20018;-69
2022/05/09 06:58:21;;;;;;;19.52;5.00;;;9.70;99.90;;;;;;6363685;22;20343;-72
2022/05/09 07:00:47;;;;;;;13.80;4.72;;;9.80;99.90;;;;;;6370174;22;20017;-69
2022/05/09 07:03:13;;;;;;;22.40;6.43;;;10.10;99.90;;;;;;6370667;22;20396;-67
2022/05/09 07:05:43;;;;;;;15.80;4.90;;;10.20;99.90;;;;;;6369207;22;20063;-72
2022/05/09 07:08:09;;;;;;;12.95;4.13;;;10.30;99.90;;;;;;6369839;22;20044;-68
2022/05/09 07:10:36;;;;;;;13.68;4.55;;;10.50;99.90;;;;;;6342774;22;20064;-74
2022/05/09 07:13:04;;;;;;;13.27;4.72;;;10.70;99.90;;;;;;6370408;22;20015;-74
2022/05/09 07:15:32;;;;;;;15.50;3.85;;;10.80;99.90;;;;;;6369893;22;20459;-75
2022/05/09 07:18:01;;;;;;;12.23;4.00;;;11.00;99.90;;;;;;6368018;22;20041;-82
2022/05/09 07:20:30;;;;;;;14.98;4.20;;;11.10;99.90;;;;;;6343542;22;20093;-73
2022/05/09 07:23:07;;;;;;;15.88;4.05;;;11.30;99.90;;;;;;6359970;22;20391;-73
2022/05/09 07:25:34;;;;;;;13.50;3.88;;;11.40;99.90;;;;;;6362845;22;20025;-71
2022/05/09 07:27:59;;;;;;;10.40;3.75;;;11.60;99.90;;;;;;6358191;22;20078;-72
2022/05/09 07:30:25;;;;;;;13.10;4.03;;;11.80;99.90;;;;;;6360364;22;20283;-71
2022/05/09 07:32:52;;;;;;;10.40;3.42;;;12.00;99.90;;;;;;6361414;22;20036;-72
2022/05/09 07:35:18;;;;;;;13.73;4.43;;;12.20;99.90;;;;;;6360553;22;20093;-72
2022/05/09 07:37:46;;;;;;;13.85;3.80;;;12.30;99.90;;;;;;6361613;22;20060;-70
2022/05/09 07:40:13;;;;;;;14.43;4.05;;;12.50;99.90;;;;;;6359649;22;20037;-71
2022/05/09 07:42:40;;;;;;;13.10;3.90;;;12.70;99.90;;;;;;6361383;22;20025;-73
2022/05/09 07:45:07;;;;;;;14.52;4.40;;;12.90;99.90;;;;;;6360143;22;20022;-73
2022/05/09 07:47:33;;;;;;;13.80;3.97;;;13.00;99.90;;;;;;6359556;22;20515;-73
2022/05/09 07:49:59;;;;;;;13.57;3.95;;;13.20;99.90;;;;;;6360085;22;20123;-75
2022/05/09 07:52:24;;;;;;;14.75;4.13;;;13.30;99.90;;;;;;6361130;22;20017;-73
2022/05/09 07:54:51;;;;;;;14.10;4.20;;;13.50;99.90;;;;;;6361195;22;20014;-73
2022/05/09 07:57:17;;;;;;;16.23;4.20;;;13.70;99.90;;;;;;6361402;22;20013;-74
2022/05/09 07:59:42;;;;;;;11.68;3.88;;;14.00;99.90;;;;;;6359808;22;20010;-71
2022/05/09 08:02:08;;;;;;;11.13;4.53;;;14.10;99.90;;;;;;6362045;22;20011;-74
2022/05/09 08:04:35;;;;;;;13.07;3.83;;;14.10;99.90;;;;;;6359485;22;20022;-73
2022/05/09 08:07:04;;;;;;;8.05;3.60;;;14.30;99.90;;;;;;6361079;22;20018;-74
2022/05/09 08:09:30;;;;;;;10.57;3.85;;;14.50;99.90;;;;;;6357444;22;20117;-73
2022/05/09 08:11:55;;;;;;;14.07;3.33;;;14.70;99.90;;;;;;6360863;22;20053;-72
2022/05/09 08:14:21;;;;;;;12.13;3.78;;;14.90;99.90;;;;;;6361400;22;20007;-73
2022/05/09 08:16:47;;;;;;;14.90;4.03;;;15.00;99.90;;;;;;6359632;22;20025;-73
2022/05/09 08:19:14;;;;;;;10.43;3.80;;;15.10;99.90;;;;;;6357563;22;20014;-74
2022/05/09 08:21:40;;;;;;;10.98;3.45;;;15.20;99.90;;;;;;6361857;22;20030;-72
2022/05/09 08:24:06;;;;;;;9.50;3.10;;;15.20;99.90;;;;;;6359185;22;20109;-73
2022/05/09 08:26:32;;;;;;;12.88;2.97;;;15.40;99.90;;;;;;6360555;22;20029;-71
2022/05/09 08:28:58;;;;;;;14.10;3.28;;;15.60;99.90;;;;;;6330660;22;20026;-74
2022/05/09 08:31:24;;;;;;;8.40;2.80;;;15.70;99.90;;;;;;6362360;22;20010;-69
2022/05/09 08:33:51;;;;;;;11.63;3.55;;;16.00;99.90;;;;;;6359334;22;20017;-70
2022/05/09 08:39:04;;;;;;;12.57;3.00;;;16.10;99.90;;;;;;6358810;22;20915;-69
2022/05/09 08:41:50;;;;;;;10.02;2.78;;;16.30;99.90;;;;;;6358183;22;20439;-70
2022/05/09 08:44:46;;;;;;;15.15;2.83;;;16.40;99.90;;;;;;6360955;22;20014;-69
2022/05/09 08:47:41;;;;;;;8.98;2.88;;;16.60;99.90;;;;;;6332099;22;20014;-70
2022/05/09 08:50:19;;;;;;;8.73;2.65;;;16.60;99.90;;;;;;6356330;22;20026;-69
2022/05/09 08:52:49;;;;;;;11.25;2.83;;;16.70;99.90;;;;;;6360182;22;20033;-70
2022/05/09 08:55:23;;;;;;;15.48;4.25;;;16.80;99.90;;;;;;6359490;22;20091;-70
2022/05/09 08:58:05;;;;;;;8.23;2.47;;;17.00;99.90;;;;;;6360299;22;20391;-70
2022/05/09 09:00:32;;;;;;;19.83;3.17;;;17.20;99.90;;;;;;6359712;22;20059;-69
2022/05/09 09:03:12;;;;;;;8.18;2.53;;;17.30;99.90;;;;;;6358696;22;20018;-71
2022/05/09 09:05:42;;;;;;;11.38;2.92;;;17.40;99.90;;;;;;6358904;22;20145;-70
2022/05/09 09:08:16;;;;;;;9.43;3.08;;;17.50;99.90;;;;;;6360212;22;20022;-69
2022/05/09 09:11:11;;;;;;;12.48;3.45;;;17.70;94.20;;;;;;6357895;22;20119;-72
2022/05/09 09:13:58;;;;;;;15.52;2.45;;;17.80;92.80;;;;;;6360802;22;20067;-72
2022/05/09 09:17:01;;;;;;;9.00;2.05;;;18.00;97.50;;;;;;6357761;22;20018;-71
2022/05/09 09:19:39;;;;;;;9.05;2.50;;;18.00;98.50;;;;;;6359274;22;20064;-72
2022/05/09 09:22:27;;;;;;;13.57;2.70;;;18.10;99.00;;;;;;6359713;22;20085;-72
2022/05/09 09:25:07;;;;;;;8.93;3.80;;;18.20;98.40;;;;;;6357730;22;20018;-72
2022/05/09 09:27:44;;;;;;;7.55;2.20;;;18.50;96.00;;;;;;6357788;22;20030;-72
2022/05/09 09:30:14;;;;;;;7.97;2.35;;;18.60;96.30;;;;;;6358730;22;20598;-72
2022/05/09 09:32:42;;;;;;;8.27;2.13;;;18.70;97.00;;;;;;6360735;22;20026;-74
2022/05/09 09:35:18;;;;;;;8.30;2.33;;;18.80;91.70;;;;;;6360504;22;20022;-67
2022/05/09 09:38:16;;;;;;;7.05;1.95;;;18.90;76.20;;;;;;6361292;22;20027;-68
2022/05/09 09:40:42;;;;;;;9.48;2.20;;;19.00;87.10;;;;;;6330784;22;20103;-71
2022/05/09 09:43:08;;;;;;;9.73;2.20;;;19.20;87.40;;;;;;6360584;22;20057;-73
2022/05/09 09:45:44;;;;;;;12.95;3.25;;;19.30;84.60;;;;;;6360473;22;20015;-76
2022/05/09 09:48:22;;;;;;;7.85;2.08;;;19.20;76.20;;;;;;6361357;22;20029;-72
2022/05/09 09:50:54;;;;;;;6.90;2.13;;;19.50;76.70;;;;;;6359787;22;20018;-78
2022/05/09 09:53:39;;;;;;;4.57;1.52;;;19.50;72.50;;;;;;6359203;22;20029;-76
2022/05/09 09:56:25;;;;;;;5.90;1.70;;;19.70;74.90;;;;;;6358249;22;20033;-73
2022/05/09 09:59:16;;;;;;;7.10;1.90;;;19.90;69.60;;;;;;6359265;22;20038;-79
2022/05/09 10:01:42;;;;;;;7.05;1.98;;;20.00;73.20;;;;;;6358274;22;20106;-69
2022/05/09 10:04:26;;;;;;;8.57;2.20;;;20.20;75.90;;;;;;6358989;22;20385;-74
2022/05/09 10:07:05;;;;;;;10.88;1.90;;;20.20;73.90;;;;;;6358918;22;20014;-74
2022/05/09 10:09:40;;;;;;;6.35;2.08;;;20.30;73.60;;;;;;6356803;22;20072;-76
2022/05/09 10:12:26;;;;;;;11.77;1.70;;;20.40;67.90;;;;;;6360691;22;20094;-71
2022/05/09 10:14:53;;;;;;;8.05;2.03;;;20.60;65.50;;;;;;6359812;22;20511;-73
2022/05/09 10:17:24;;;;;;;7.20;2.20;;;20.70;71.40;;;;;;6362982;22;20013;-71
2022/05/09 10:19:51;;;;;;;9.82;2.10;;;20.80;67.40;;;;;;6360707;22;20025;-73
2022/05/09 10:25:22;;;;;;;8.43;2.25;;;21.00;64.90;;;;;;6361621;22;20443;-73
2022/05/09 10:28:13;;;;;;;8.32;1.50;;;21.00;63.70;;;;;;6362588;22;20436;-74
2022/05/09 10:30:46;;;;;;;9.73;1.85;;;21.20;62.30;;;;;;6350264;22;20018;-76
2022/05/09 10:33:35;;;;;;;6.70;1.92;;;21.20;67.00;;;;;;6362463;22;20022;-70
2022/05/09 10:36:17;;;;;;;7.13;1.80;;;21.20;65.30;;;;;;6362667;22;20019;-69
2022/05/09 10:38:48;;;;;;;7.00;1.58;;;21.20;61.20;;;;;;6361163;22;20053;-73
2022/05/09 10:41:43;;;;;;;4.80;1.42;;;21.30;63.30;;;;;;6365032;22;20014;-71
2022/05/09 10:44:15;;;;;;;7.07;1.77;;;21.40;60.60;;;;;;6361723;22;20018;-71
2022/05/09 10:46:52;;;;;;;6.55;1.63;;;21.60;63.00;;;;;;6363846;22;20022;-70
2022/05/09 10:49:48;;;;;;;5.35;1.20;;;21.70;64.40;;;;;;6336254;22;20045;-72
2022/05/09 10:52:49;;;;;;;6.50;1.38;;;21.90;60.20;;;;;;6362657;22;20093;-73
2022/05/09 10:55:23;;;;;;;5.65;1.38;;;21.90;60.60;;;;;;6360028;22;20026;-70
2022/05/09 10:58:00;;;;;;;5.13;1.50;;;21.80;63.60;;;;;;6362371;22;20025;-70
2022/05/09 11:00:27;;;;;;;9.90;2.38;;;21.80;60.60;;;;;;6360939;22;20049;-73
2022/05/09 11:03:34;;;;;;;9.93;1.48;;;21.80;60.10;;;;;;6362055;22;20007;-69
2022/05/09 11:06:19;;;;;;;7.75;1.52;;;21.80;55.70;;;;;;6333970;22;20068;-74
2022/05/09 11:09:14;;;;;;;7.78;1.80;;;22.00;62.70;;;;;;6361393;22;20782;-70
2022/05/09 11:12:15;;;;;;;6.55;1.40;;;22.20;59.90;;;;;;6360822;22;20014;-70
2022/05/09 11:15:13;;;;;;;5.20;1.40;;;22.30;61.10;;;;;;6360101;22;20399;-70
2022/05/09 11:18:04;;;;;;;5.85;1.50;;;22.50;60.60;;;;;;6360994;22;20022;-71
2022/05/09 11:21:01;;;;;;;6.28;1.90;;;22.30;56.10;;;;;;6361162;22;20026;-67
2022/05/09 11:23:45;;;;;;;6.43;1.30;;;22.30;57.00;;;;;;6361368;22;20018;-69
2022/05/09 11:26:22;;;;;;;6.78;1.50;;;22.40;61.10;;;;;;6359040;22;20393;-70
2022/05/09 11:29:25;;;;;;;7.20;2.10;;;22.40;58.90;;;;;;6360609;22;20022;-70
2022/05/09 11:31:59;;;;;;;6.78;1.90;;;22.70;59.50;;;;;;6359148;22;20018;-71
2022/05/09 11:35:07;;;;;;;7.63;1.98;;;22.70;61.00;;;;;;6360104;22;20032;-73
2022/05/09 11:37:40;;;;;;;6.32;1.60;;;22.60;53.60;;;;;;6332214;22;20022;-69
2022/05/09 11:40:16;;;;;;;5.60;1.60;;;22.70;59.70;;;;;;6360408;22;20447;-70
2022/05/09 11:45:50;;;;;;;4.47;1.60;;;22.60;58.90;;;;;;6361106;22;20356;-70
2022/05/09 11:48:26;;;;;;;4.90;1.70;;;22.80;58.60;;;;;;6359955;22;20018;-67
2022/05/09 11:51:34;;;;;;;5.70;1.80;;;22.90;58.30;;;;;;6362158;22;20018;-69
2022/05/09 11:54:06;;;;;;;13.45;1.90;;;23.00;58.00;;;;;;6263768;22;20019;-69
2022/05/09 11:56:32;;;;;;;5.68;1.88;;;22.90;57.20;;;;;;6263560;22;20189;-70
2022/05/09 11:59:00;;;;;;;6.47;1.70;;;22.80;58.00;;;;;;6262333;22;20051;-67
2022/05/09 12:01:52;;;;;;;7.68;1.60;;;22.90;58.30;;;;;;6238632;22;20015;-67
2022/05/09 12:04:40;;;;;;;10.40;1.70;;;23.00;56.90;;;;;;6265103;22;20016;-71
2022/05/09 12:07:35;;;;;;;8.60;1.80;;;23.10;58.50;;;;;;6239027;22;20474;-68
2022/05/09 12:10:03;;;;;;;4.78;1.58;;;23.20;56.30;;;;;;6201245;23;20421;-70
2022/05/09 12:12:38;;;;;;;6.57;1.60;;;23.20;58.90;;;;;;6202935;23;20493;-70
2022/05/09 12:15:06;;;;;;;7.70;1.90;;;23.30;56.50;;;;;;6178122;23;20048;-70
2022/05/09 12:17:40;;;;;;;4.75;1.40;;;23.40;59.10;;;;;;6177559;23;20112;-72
2022/05/09 12:20:29;;;;;;;4.32;1.48;;;23.50;58.70;;;;;;6202198;23;20128;-70
2022/05/09 12:22:58;;;;;;;7.07;2.35;;;23.50;55.00;;;;;;6148434;23;20017;-72
2022/05/09 12:25:36;;;;;;;4.70;1.55;;;23.40;58.70;;;;;;6173062;23;20021;-72
2022/05/09 12:28:33;;;;;;;4.10;1.60;;;23.40;57.20;;;;;;6147311;23;20044;-76
2022/05/09 12:31:32;;;;;;;5.72;1.80;;;23.40;58.00;;;;;;6227286;22;20024;-75
2022/05/09 12:33:58;;;;;;;6.43;2.00;;;23.50;57.00;;;;;;6212192;22;20019;-75
2022/05/09 12:36:26;;;;;;;6.40;1.80;;;23.50;58.70;;;;;;6238095;22;20538;-74
2022/05/09 12:38:55;;;;;;;7.60;1.60;;;23.70;59.10;;;;;;6236473;22;20095;-74
2022/05/09 12:41:25;;;;;;;8.07;1.85;;;23.70;58.40;;;;;;6263551;22;20022;-75
2022/05/09 12:44:19;;;;;;;9.90;2.00;;;23.70;57.70;;;;;;6236836;22;20087;-75
2022/05/09 12:46:52;;;;;;;7.00;1.70;;;23.80;57.50;;;;;;6261946;22;20028;-73
2022/05/09 12:49:24;;;;;;;7.22;1.92;;;23.90;58.70;;;;;;6261879;22;20469;-73
2022/05/09 12:52:00;;;;;;;10.48;2.13;;;23.90;59.00;;;;;;6264182;22;20015;-73
2022/05/09 12:54:29;;;;;;;8.68;1.95;;;24.00;58.50;;;;;;6263488;22;20016;-71
2022/05/09 12:57:02;;;;;;;6.93;1.77;;;24.10;59.10;;;;;;6262983;22;20033;-76
2022/05/09 12:59:29;;;;;;;10.30;1.90;;;24.10;58.60;;;;;;6288891;22;20022;-77
2022/05/09 13:02:02;;;;;;;10.63;2.20;;;24.20;59.00;;;;;;6360992;22;20021;-73
2022/05/09 13:04:33;;;;;;;7.10;1.77;;;24.20;59.30;;;;;;6361717;22;20014;-72
2022/05/09 13:07:07;;;;;;;6.33;1.97;;;24.20;58.90;;;;;;6356652;22;20106;-76
2022/05/09 13:09:45;;;;;;;6.35;1.70;;;24.20;55.90;;;;;;6359024;22;20835;-73
2022/05/09 13:12:34;;;;;;;6.90;2.03;;;24.00;58.10;;;;;;6358574;22;20110;-73
2022/05/09 13:15:13;;;;;;;11.65;2.28;;;24.20;59.10;;;;;;6360711;22;20026;-74
2022/05/09 13:17:54;;;;;;;9.75;1.85;;;24.20;59.10;;;;;;6360178;22;20045;-77
2022/05/09 13:20:23;;;;;;;5.23;1.70;;;24.30;58.30;;;;;;6359800;22;20081;-74
2022/05/09 13:22:51;;;;;;;8.95;1.83;;;24.30;58.80;;;;;;6359266;22;20248;-74
2022/05/09 13:25:39;;;;;;;7.50;2.20;;;24.30;58.90;;;;;;6360055;22;20010;-74
2022/05/09 13:28:10;;;;;;;5.32;1.75;;;24.40;58.50;;;;;;6358654;22;20041;-74
2022/05/09 13:30:50;;;;;;;9.27;2.33;;;24.30;56.20;;;;;;6357410;22;20562;-77
2022/05/09 13:33:20;;;;;;;11.38;2.40;;;24.30;53.30;;;;;;6358751;22;20512;-74
2022/05/09 13:35:52;;;;;;;12.95;2.00;;;24.30;57.10;;;;;;6361116;22;20140;-74
2022/05/09 13:38:24;;;;;;;8.20;1.88;;;24.30;57.10;;;;;;6357989;22;20018;-75
2022/05/09 13:40:58;;;;;;;6.78;1.90;;;24.20;55.10;;;;;;6360596;22;20503;-73
2022/05/09 13:43:26;;;;;;;5.40;1.65;;;24.20;57.20;;;;;;6358241;22;20033;-72
2022/05/09 13:46:01;;;;;;;8.77;1.92;;;24.20;57.00;;;;;;6359201;22;20014;-73
2022/05/09 13:48:27;;;;;;;3.58;1.33;;;24.30;57.30;;;;;;6359021;22;20067;-73
2022/05/09 13:50:53;;;;;;;9.65;2.05;;;24.30;57.20;;;;;;6360542;22;20018;-74
2022/05/09 13:53:27;;;;;;;5.28;1.45;;;24.30;57.00;;;;;;6363058;22;20025;-79
2022/05/09 13:55:58;;;;;;;6.60;2.13;;;24.40;57.10;;;;;;6363932;22;20006;-75
2022/05/09 13:58:28;;;;;;;8.30;1.85;;;24.40;56.50;;;;;;6361352;22;20010;-74
2022/05/09 14:00:55;;;;;;;6.65;2.10;;;24.30;56.10;;;;;;6360826;22;20018;-72
2022/05/09 14:03:38;;;;;;;6.85;1.83;;;24.40;56.60;;;;;;6362706;22;20063;-74
2022/05/09 14:06:20;;;;;;;6.05;1.70;;;24.40;56.80;;;;;;6361565;22;20611;-77
2022/05/09 14:08:49;;;;;;;7.35;2.03;;;24.40;56.40;;;;;;6361288;22;20010;-72
2022/05/09 14:11:15;;;;;;;7.65;1.90;;;24.40;56.60;;;;;;6362368;22;20030;-74
2022/05/09 14:13:46;;;;;;;7.22;1.90;;;24.40;57.10;;;;;;6361488;22;20014;-74
2022/05/09 14:16:19;;;;;;;9.02;1.80;;;24.50;57.00;;;;;;6361491;22;20518;-74
2022/05/09 14:19:13;;;;;;;11.30;2.10;;;24.40;57.10;;;;;;6361560;22;20010;-76
2022/05/09 14:21:52;;;;;;;6.20;1.70;;;24.50;57.00;;;;;;6354876;22;20106;-74
2022/05/09 14:24:25;;;;;;;7.25;2.03;;;24.50;55.60;;;;;;6366097;22;20313;-76
2022/05/09 14:29:40;;;;;;;5.85;1.80;;;24.50;56.50;;;;;;6371902;22;20018;-72
2022/05/09 14:32:08;;;;;;;7.45;1.77;;;24.60;57.10;;;;;;6369681;22;20022;-74
2022/05/09 14:34:46;;;;;;;8.63;1.95;;;24.50;52.50;;;;;;6367184;22;20089;-78
2022/05/09 14:37:28;;;;;;;6.63;1.80;;;24.50;53.90;;;;;;6371746;22;20096;-77
2022/05/09 14:40:06;;;;;;;8.38;2.03;;;24.40;54.40;;;;;;6370864;22;20014;-76
2022/05/09 14:42:33;;;;;;;9.02;1.60;;;24.60;55.30;;;;;;6370787;22;20059;-76
2022/05/09 14:45:02;;;;;;;6.53;1.63;;;24.60;56.50;;;;;;6371677;22;20022;-75
2022/05/09 14:47:39;;;;;;;7.53;1.50;;;24.80;54.70;;;;;;6370020;22;20030;-79
2022/05/09 14:50:18;;;;;;;5.85;1.90;;;24.90;56.70;;;;;;6371240;22;20034;-77
2022/05/09 14:52:43;;;;;;;6.25;2.08;;;24.90;54.60;;;;;;6370540;22;20011;-74
2022/05/09 14:58:15;;;;;;;7.07;1.90;;;25.20;53.80;;;;;;6368693;22;20022;-75
2022/05/09 15:00:42;;;;;;;6.07;1.73;;;25.30;52.60;;;;;;6369343;22;20050;-74
2022/05/09 15:03:17;;;;;;;5.43;1.80;;;25.40;55.60;;;;;;6372922;22;20034;-75
2022/05/09 15:05:42;;;;;;;3.47;1.35;;;25.50;55.40;;;;;;6374299;22;20014;-73
2022/05/09 15:08:08;;;;;;;4.75;1.40;;;25.70;56.30;;;;;;6369621;22;20053;-81
2022/05/09 15:10:37;;;;;;;6.15;1.30;;;25.80;56.50;;;;;;6370800;22;20109;-74
2022/05/09 15:13:03;;;;;;;6.35;1.55;;;25.90;55.40;;;;;;6372066;22;20011;-76
2022/05/09 15:15:29;;;;;;;4.13;1.40;;;26.10;56.60;;;;;;6373095;22;20063;-73
2022/05/09 15:17:55;;;;;;;4.07;1.38;;;26.10;56.10;;;;;;6370848;22;20025;-74
2022/05/09 15:20:21;;;;;;;6.00;1.67;;;26.10;55.80;;;;;;6372751;22;20014;-74
2022/05/09 15:22:48;;;;;;;6.95;1.73;;;26.20;55.90;;;;;;6371664;22;20018;-76
2022/05/09 15:25:14;;;;;;;7.93;1.75;;;26.40;56.40;;;;;;6372330;22;20458;-75
2022/05/09 15:27:42;;;;;;;3.63;1.40;;;26.50;56.10;;;;;;6370875;22;20018;-76
2022/05/09 15:30:09;;;;;;;5.22;1.60;;;26.60;56.10;;;;;;6370913;22;20455;-78
2022/05/09 15:32:34;;;;;;;5.65;1.42;;;26.80;55.00;;;;;;6371242;22;20018;-75
2022/05/09 15:35:00;;;;;;;4.40;1.42;;;26.80;55.80;;;;;;6368210;22;20029;-77
2022/05/09 15:37:26;;;;;;;6.88;1.67;;;27.00;55.80;;;;;;6370155;22;20089;-75
2022/05/09 15:39:52;;;;;;;4.10;1.38;;;27.10;55.80;;;;;;6368064;22;20106;-74
2022/05/09 15:42:27;;;;;;;3.55;1.33;;;27.30;53.70;;;;;;6371636;22;20011;-79
2022/05/09 15:44:57;;;;;;;5.20;1.50;;;27.30;50.00;;;;;;6372275;22;20049;-78
2022/05/09 15:47:23;;;;;;;4.50;1.33;;;27.50;53.90;;;;;;6369918;22;20074;-74
2022/05/09 15:49:51;;;;;;;5.85;1.50;;;27.70;54.40;;;;;;6370344;22;20014;-72
2022/05/09 15:52:17;;;;;;;6.05;1.65;;;27.90;53.90;;;;;;6369684;22;20007;-71
2022/05/09 15:54:43;;;;;;;6.55;1.75;;;28.00;53.80;;;;;;6368368;22;20144;-71
2022/05/09 15:57:18;;;;;;;9.00;1.92;;;28.10;53.60;;;;;;6367637;22;20025;-70
2022/05/09 15:59:44;;;;;;;4.93;1.40;;;28.20;52.90;;;;;;6370002;22;20018;-73
2022/05/09 16:02:10;;;;;;;4.22;1.23;;;28.00;51.90;;;;;;6369775;22;20089;-71
2022/05/09 16:04:35;;;;;;;4.32;1.30;;;27.90;51.60;;;;;;6369085;22;20138;-72
2022/05/09 16:12:32;;;;;;;4.90;1.52;;;27.40;51.20;;;;;;6370148;22;20022;-72
2022/05/09 16:15:01;;;;;;;4.00;1.10;;;27.50;51.50;;;;;;6367148;22;20025;-72
2022/05/09 16:17:27;;;;;;;5.00;1.35;;;27.60;50.90;;;;;;6368695;22;20109;-73
2022/05/09 16:19:59;;;;;;;5.13;1.70;;;27.70;51.00;;;;;;6370172;22;20059;-71
2022/05/09 16:22:25;;;;;;;;;;;28.00;50.20;;;;;;6369793;22;20438;-73
2022/05/09 16:24:51;;;;;;;7.45;1.60;;;27.90;47.20;;;;;;6341012;22;20251;-73
2022/05/09 16:27:27;;;;;;;4.03;1.25;;;28.10;51.20;;;;;;6369158;22;20018;-77
2022/05/09 16:29:56;;;;;;;4.05;1.17;;;28.10;50.10;;;;;;6369645;22;20029;-73
2022/05/09 16:32:21;;;;;;;5.80;1.50;;;27.80;50.90;;;;;;6369696;22;20097;-72
2022/05/09 16:34:49;;;;;;;4.45;1.40;;;27.70;50.80;;;;;;6366624;22;20045;-74
2022/05/09 16:37:14;;;;;;;11.73;1.20;;;27.50;50.10;;;;;;6369775;22;20018;-73
2022/05/09 16:39:46;;;;;;;5.93;1.42;;;27.30;50.20;;;;;;6369327;22;20494;-76
2022/05/09 16:42:18;;;;;;;5.40;1.20;;;27.30;49.50;;;;;;6370056;22;20066;-76
2022/05/09 16:45:09;;;;;;;6.78;1.50;;;27.20;49.60;;;;;;6368010;22;20029;-74
2022/05/09 16:47:37;;;;;;;4.57;1.47;;;26.90;47.00;;;;;;6272119;22;20053;-74
2022/05/09 16:50:06;;;;;;;4.07;1.25;;;26.70;50.00;;;;;;6247059;22;20020;-71
2022/05/09 16:52:33;;;;;;;8.30;1.13;;;26.60;49.80;;;;;;6272307;22;20020;-76
2022/05/09 16:54:58;;;;;;;4.97;1.27;;;26.30;50.40;;;;;;6272947;22;20019;-73
2022/05/09 16:57:25;;;;;;;12.80;1.63;;;25.90;50.40;;;;;;6271704;22;20015;-73
2022/05/09 16:59:51;;;;;;;6.20;1.83;;;25.40;50.50;;;;;;6272853;22;20052;-77
2022/05/09 17:02:19;;;;;;;5.38;1.55;;;24.90;49.70;;;;;;6272385;22;20011;-76
2022/05/09 17:04:45;;;;;;;12.60;1.33;;;24.50;50.80;;;;;;6271789;22;20023;-71
2022/05/09 17:07:12;;;;;;;4.38;1.20;;;24.20;51.00;;;;;;6272811;22;20066;-74
2022/05/09 17:09:39;;;;;;;5.13;1.42;;;23.90;50.90;;;;;;6272032;22;20094;-75
2022/05/09 17:12:06;;;;;;;7.85;1.75;;;23.70;51.10;;;;;;6273405;22;20411;-75
2022/05/09 17:14:38;;;;;;;3.92;1.17;;;23.50;51.30;;;;;;6272441;22;20027;-74
2022/05/09 17:17:07;;;;;;;;;;;23.30;51.70;;;;;;6272872;22;20062;-75
2022/05/09 17:19:33;;;;;;;3.90;1.45;;;23.10;51.60;;;;;;6272065;22;19915;-74
2022/05/09 17:21:59;;;;;;;4.15;1.40;;;22.90;51.80;;;;;;6271779;22;20011;-75
2022/05/09 17:24:27;;;;;;;4.75;1.35;;;22.80;52.00;;;;;;6299662;22;20014;-75
2022/05/09 17:26:55;;;;;;;7.95;1.50;;;22.60;52.40;;;;;;6366345;22;20025;-75
2022/05/09 17:29:22;;;;;;;3.78;1.30;;;22.50;52.70;;;;;;6367344;22;20030;-74
2022/05/09 17:31:47;;;;;;;5.97;1.60;;;22.40;52.80;;;;;;6369219;22;20067;-73
2022/05/09 17:34:15;;;;;;;5.28;1.45;;;22.40;52.90;;;;;;6368442;22;20018;-78
2022/05/09 17:39:25;;;;;;;4.10;1.50;;;22.20;53.60;;;;;;6368037;22;20455;-75
2022/05/09 17:41:51;;;;;;;7.07;1.10;;;22.20;53.80;;;;;;6369053;22;20022;-74
2022/05/09 17:44:17;;;;;;;5.03;1.35;;;22.10;54.00;;;;;;6366876;22;20064;-75
2022/05/09 17:46:48;;;;;;;5.47;1.30;;;22.00;54.10;;;;;;6368607;22;20347;-74
2022/05/09 17:49:30;;;;;;;;;;;;;;;;;;;;;
2022/05/09 17:51:56;;;;;;;6.90;1.50;;;21.90;54.70;;;;;;6368625;22;20017;-75
2022/05/09 17:54:22;;;;;;;5.10;1.98;;;21.80;54.80;;;;;;6369547;22;20432;-75
2022/05/09 17:56:52;;;;;;;2.75;1.10;;;21.70;55.00;;;;;;6367797;22;20007;-72
2022/05/09 17:59:18;;;;;;;4.75;1.58;;;21.70;55.30;;;;;;6369160;22;20037;-72
2022/05/09 18:01:53;;;;;;;4.70;1.40;;;21.60;55.40;;;;;;6368729;22;20424;-74
2022/05/09 18:04:21;;;;;;;8.27;1.63;;;21.40;56.00;;;;;;6368530;22;20007;-71
2022/05/09 18:06:47;;;;;;;10.88;1.60;;;21.20;56.30;;;;;;6368453;22;20382;-71
2022/05/09 18:09:12;;;;;;;10.43;1.73;;;21.10;57.00;;;;;;6368319;22;20010;-71
2022/05/09 18:11:49;;;;;;;4.50;1.30;;;21.00;57.60;;;;;;6367160;22;20025;-74
2022/05/09 18:14:17;;;;;;;5.90;1.20;;;20.80;58.40;;;;;;6368330;22;20390;-71
2022/05/09 18:16:50;;;;;;;4.57;1.30;;;20.70;58.60;;;;;;6368613;22;20015;-73
2022/05/09 18:19:16;;;;;;;10.98;1.63;;;20.60;59.00;;;;;;6368972;22;20010;-71
2022/05/09 18:21:42;;;;;;;8.73;1.67;;;20.50;59.20;;;;;;6367821;22;20006;-77
2022/05/09 18:24:14;;;;;;;5.15;1.63;;;20.40;59.60;;;;;;6368625;22;20044;-73
2022/05/09 18:26:40;;;;;;;5.22;1.35;;;20.30;60.20;;;;;;6367196;22;20017;-75
2022/05/09 18:29:06;;;;;;;8.52;2.00;;;20.20;59.90;;;;;;6360572;22;20105;-70
2022/05/09 18:31:45;;;;;;;6.03;1.80;;;20.10;60.20;;;;;;6359615;22;20037;-71
2022/05/09 18:34:15;;;;;;;6.45;1.60;;;20.00;61.00;;;;;;6361924;22;20101;-73
2022/05/09 18:36:43;;;;;;;5.60;1.90;;;19.90;60.90;;;;;;6357865;22;20022;-70
2022/05/09 18:39:15;;;;;;;6.57;1.73;;;19.90;61.20;;;;;;6359640;22;20026;-70
2022/05/09 18:41:47;;;;;;;7.85;1.98;;;19.70;61.60;;;;;;6362374;22;20020;-75
2022/05/09 18:44:13;;;;;;;7.10;2.20;;;19.60;61.90;;;;;;6365146;22;20029;-72
2022/05/09 18:46:40;;;;;;;5.95;1.80;;;19.50;61.70;;;;;;6371428;22;20006;-79
2022/05/09 18:54:34;;;;;;;9.85;1.90;;;19.30;62.00;;;;;;6367245;22;20460;-72
2022/05/09 18:57:00;;;;;;;15.40;2.60;;;19.20;62.40;;;;;;6367365;22;20050;-76
2022/05/09 18:59:26;;;;;;;12.07;2.05;;;19.10;62.80;;;;;;6371273;22;20010;-76
2022/05/09 19:01:52;;;;;;;7.93;1.92;;;19.00;63.60;;;;;;6370025;22;20518;-79
2022/05/09 19:04:19;;;;;;;14.20;2.40;;;18.80;64.20;;;;;;6370044;22;20014;-77
2022/05/09 19:06:49;;;;;;;9.82;2.50;;;18.80;64.60;;;;;;6364126;22;20025;-78
2022/05/09 19:09:18;;;;;;;7.40;2.00;;;18.60;65.70;;;;;;6371342;22;20440;-76
2022/05/09 19:11:47;;;;;;;8.75;1.85;;;18.50;66.10;;;;;;6369637;22;20022;-71
2022/05/09 19:14:22;;;;;;;9.95;2.20;;;18.40;66.90;;;;;;6369350;22;20137;-67
2022/05/09 19:16:48;;;;;;;11.18;2.00;;;18.30;67.60;;;;;;6369609;22;20026;-69
2022/05/09 19:19:14;;;;;;;7.88;1.90;;;18.30;67.00;;;;;;6369634;22;20015;-73
2022/05/09 19:21:40;;;;;;;11.93;4.43;;;18.20;68.10;;;;;;6367278;22;20049;-76
2022/05/09 19:24:06;;;;;;;10.90;2.30;;;18.10;69.00;;;;;;6367902;22;20025;-79
2022/05/09 19:26:34;;;;;;;8.18;2.30;;;18.10;69.60;;;;;;6340042;22;20101;-69
2022/05/09 19:29:03;;;;;;;9.43;2.42;;;18.00;70.90;;;;;;6369789;22;20030;-76
2022/05/09 19:31:34;;;;;;;8.55;2.70;;;17.90;71.80;;;;;;6369654;22;20370;-75
2022/05/09 19:34:00;;;;;;;8.73;2.55;;;17.70;73.70;;;;;;6369840;22;20396;-79
2022/05/09 19:36:27;;;;;;;11.45;2.92;;;17.60;73.80;;;;;;6369025;22;20014;-77
2022/05/09 19:38:52;;;;;;;10.48;2.67;;;17.50;75.40;;;;;;6366788;22;20424;-72
2022/05/09 19:41:27;;;;;;;8.63;2.28;;;17.40;77.30;;;;;;6369719;22;20071;-71
2022/05/09 19:43:53;;;;;;;7.97;2.28;;;17.30;80.00;;;;;;6368623;22;20006;-71
2022/05/09 19:46:19;;;;;;;8.55;2.40;;;17.20;81.10;;;;;;6368065;22;20576;-72
2022/05/09 19:48:45;;;;;;;7.97;3.58;;;17.10;83.90;;;;;;6367755;22;20045;-71
2022/05/09 19:51:11;;;;;;;9.52;3.30;;;16.90;87.40;;;;;;6368186;22;20089;-69
2022/05/09 19:56:21;;;;;;;9.52;2.80;;;16.80;91.40;;;;;;6369409;22;20334;-71
2022/05/09 19:58:47;;;;;;;10.25;3.25;;;16.80;93.80;;;;;;6369522;22;20010;-72
2022/05/09 20:01:13;;;;;;;10.07;3.17;;;16.60;95.40;;;;;;6368958;22;20010;-73
2022/05/09 20:03:40;;;;;;;9.90;2.65;;;16.50;96.30;;;;;;6369377;22;20018;-72
2022/05/09 20:06:06;;;;;;;8.70;3.00;;;16.40;97.80;;;;;;6368568;22;20313;-68